createdAt,value
2023-12-04T04:22:54.685Z,-4.81
2023-12-04T04:25:57.314Z,-4.81
2023-12-04T04:28:59.754Z,-4.96
2023-12-04T04:32:02.303Z,-4.76
2023-12-04T04:35:04.864Z,-4.91
2023-12-04T04:38:07.335Z,-4.87
2023-12-04T04:41:17.185Z,-4.72
2023-12-04T04:44:19.720Z,-5.29
2023-12-04T04:47:21.992Z,-5.57
2023-12-04T04:50:24.448Z,-5.74
2023-12-04T04:53:26.588Z,-5.57
2023-12-04T04:56:30.921Z,-5.61
2023-12-04T04:59:33.535Z,-5.72
2023-12-04T05:02:36.629Z,-5.65
2023-12-04T05:05:38.782Z,-5.66
2023-12-04T05:08:41.247Z,-5.67
2023-12-04T05:11:43.458Z,-5.67
2023-12-04T05:14:45.889Z,-5.12
2023-12-04T05:17:48.407Z,-5.11
2023-12-04T05:20:50.996Z,-5.30
2023-12-04T05:23:53.176Z,-5.17
2023-12-04T05:26:56.253Z,-5.07
2023-12-04T05:29:58.521Z,-4.89
2023-12-04T05:33:01.224Z,-5.04
2023-12-04T05:36:03.972Z,-5.16
2023-12-04T05:39:06.506Z,-5.10
2023-12-04T05:42:09.455Z,-5.12
2023-12-04T05:45:11.998Z,-5.10
2023-12-04T05:48:14.165Z,-5.09
2023-12-04T05:51:16.738Z,-5.02
2023-12-04T05:54:18.949Z,-5.38
2023-12-04T05:57:21.386Z,-5.51
2023-12-04T06:00:25.977Z,-5.68
2023-12-04T06:03:29.987Z,-5.60
2023-12-04T06:06:32.165Z,-5.18
2023-12-04T06:09:34.857Z,-5.08
2023-12-04T06:12:37.179Z,-5.42
2023-12-04T06:15:39.679Z,-5.42
2023-12-04T06:18:41.899Z,-5.55
2023-12-04T06:21:44.445Z,-5.53
2023-12-04T06:24:47.366Z,-5.30
2023-12-04T06:27:50.366Z,-5.24
2023-12-04T06:30:52.905Z,-5.15
2023-12-04T06:33:55.748Z,-5.67
2023-12-04T06:36:58.292Z,-5.92
2023-12-04T06:40:03.747Z,-5.62
2023-12-04T06:43:06.452Z,-5.34
2023-12-04T06:46:09.759Z,-4.98
2023-12-04T06:49:15.353Z,-4.83
2023-12-04T06:52:18.021Z,-5.23
2023-12-04T06:55:20.672Z,-5.55
2023-12-04T06:58:23.226Z,-5.14
2023-12-04T07:01:25.590Z,-5.10
2023-12-04T07:04:28.066Z,-4.81
2023-12-04T07:07:30.237Z,-4.64
2023-12-04T07:10:35.259Z,-4.88
2023-12-04T07:13:37.842Z,-4.68
2023-12-04T07:16:42.541Z,-4.89
2023-12-04T07:19:44.884Z,-4.94
2023-12-04T07:22:47.809Z,-4.52
2023-12-04T07:25:52.876Z,-4.29
2023-12-04T07:28:55.919Z,-4.32
2023-12-04T07:31:59.867Z,-4.15
2023-12-04T07:35:02.432Z,-4.34
2023-12-04T07:38:04.648Z,-4.02
2023-12-04T07:41:07.599Z,-3.76
2023-12-04T07:44:09.847Z,-3.58
2023-12-04T07:47:12.292Z,-3.71
2023-12-04T07:50:14.670Z,-3.86
2023-12-04T07:53:17.177Z,-3.84
2023-12-04T07:56:19.682Z,-3.55
2023-12-04T07:59:22.322Z,-2.42
2023-12-04T08:02:24.566Z,-1.57
2023-12-04T08:05:28.545Z,-1.38
2023-12-04T08:08:32.329Z,-0.67
2023-12-04T08:11:35.497Z,0.72
2023-12-04T08:14:37.941Z,1.59
2023-12-04T08:17:40.767Z,1.72
2023-12-04T08:20:43.558Z,2.31
2023-12-04T08:23:46.154Z,1.45
2023-12-04T08:26:48.544Z,1.30
2023-12-04T08:29:51.460Z,1.62
2023-12-04T08:32:54.175Z,1.35
2023-12-04T08:35:56.755Z,1.27
2023-12-04T08:38:59.003Z,0.81
2023-12-04T08:42:04.952Z,1.06
2023-12-04T08:45:10.546Z,2.49
2023-12-04T08:48:13.075Z,2.59
2023-12-04T08:51:18.620Z,1.85
2023-12-04T08:54:21.132Z,2.98
2023-12-04T08:57:23.535Z,3.71
2023-12-04T09:00:26.153Z,3.39
2023-12-04T09:03:32.335Z,2.42
2023-12-04T09:09:40.653Z,3.06
2023-12-04T09:12:43.176Z,3.42
2023-12-04T09:15:45.913Z,3.13
2023-12-04T09:18:48.532Z,3.60
2023-12-04T09:21:59.215Z,3.89
2023-12-04T09:25:11.009Z,3.39
2023-12-04T09:28:13.224Z,2.94
2023-12-04T09:31:15.849Z,3.79
2023-12-04T09:34:19.097Z,3.77
2023-12-04T09:37:21.569Z,3.99
2023-12-04T09:40:24.602Z,4.34
2023-12-04T09:43:30.548Z,4.15
2023-12-04T09:46:35.400Z,4.33
2023-12-04T09:49:39.306Z,5.00
2023-12-04T09:52:41.754Z,4.25
2023-12-04T09:55:44.437Z,3.12
2023-12-04T09:58:50.966Z,3.72
2023-12-04T10:01:54.064Z,4.32
2023-12-04T10:04:56.905Z,4.63
2023-12-04T10:07:59.126Z,4.96
2023-12-04T10:11:02.288Z,5.38
2023-12-04T10:14:04.795Z,4.14
2023-12-04T10:17:19.037Z,2.81
2023-12-04T10:20:22.929Z,2.33
2023-12-04T10:23:43.457Z,2.54
2023-12-04T10:26:52.641Z,2.55
2023-12-04T10:29:57.722Z,3.03
2023-12-04T10:33:02.706Z,2.90
2023-12-04T10:36:12.342Z,3.16
2023-12-04T10:39:14.605Z,4.56
2023-12-04T10:42:33.719Z,5.54
2023-12-04T10:45:37.683Z,6.82
2023-12-04T10:48:40.765Z,5.83
2023-12-04T10:51:43.197Z,6.31
2023-12-04T10:54:46.835Z,6.89
2023-12-04T10:57:52.907Z,8.10
2023-12-04T11:00:57.572Z,8.66
2023-12-04T11:04:01.287Z,9.21
2023-12-04T11:07:06.504Z,9.68
2023-12-04T11:10:11.787Z,8.60
2023-12-04T11:13:19.382Z,9.37
2023-12-04T11:16:30.355Z,13.89
2023-12-04T11:19:47.830Z,16.99
2023-12-04T11:22:51.672Z,18.58
2023-12-04T11:25:55.120Z,17.24
2023-12-04T11:28:58.675Z,17.96
2023-12-04T11:32:01.222Z,15.67
2023-12-04T11:35:04.889Z,11.14
2023-12-04T11:38:10.716Z,10.37
2023-12-04T11:41:18.628Z,13.74
2023-12-04T11:44:26.521Z,18.16
2023-12-04T11:47:32.028Z,19.63
2023-12-04T11:50:34.890Z,19.84
2023-12-04T11:53:41.085Z,17.57
2023-12-04T11:57:11.602Z,16.05
2023-12-04T12:00:20.255Z,14.54
2023-12-04T12:03:23.903Z,14.26
2023-12-04T12:06:27.150Z,12.65
2023-12-04T12:09:30.440Z,11.31
2023-12-04T12:12:33.789Z,7.23
2023-12-04T12:15:36.653Z,4.12
2023-12-04T12:18:40.666Z,3.80
2023-12-04T12:21:43.365Z,2.78
2023-12-04T12:24:46.086Z,2.43
2023-12-04T12:27:48.730Z,2.49
2023-12-04T12:30:51.112Z,2.54
2023-12-04T12:33:53.890Z,2.24
2023-12-04T12:36:57.000Z,2.46
2023-12-04T12:39:59.667Z,2.42
2023-12-04T12:43:09.764Z,2.36
2023-12-04T12:46:12.590Z,2.04
2023-12-04T12:49:25.546Z,2.03
2023-12-04T12:52:34.869Z,2.01
2023-12-04T12:55:42.220Z,2.02
2023-12-04T12:58:44.844Z,2.06
2023-12-04T13:01:49.297Z,1.74
2023-12-04T13:04:51.984Z,1.64
2023-12-04T13:07:54.332Z,1.79
2023-12-04T13:10:57.021Z,1.68
2023-12-04T13:13:59.178Z,1.41
2023-12-04T13:17:02.558Z,1.42
2023-12-04T13:20:06.025Z,1.51
2023-12-04T13:23:08.566Z,1.43
2023-12-04T13:26:11.687Z,1.31
2023-12-04T13:29:18.508Z,1.18
2023-12-04T13:32:21.517Z,1.08
2023-12-04T13:35:24.337Z,1.01
2023-12-04T13:38:30.459Z,0.98
2023-12-04T13:41:56.231Z,0.99
2023-12-04T13:44:58.924Z,0.97
2023-12-04T13:48:01.494Z,0.82
2023-12-04T13:51:04.114Z,0.80
2023-12-04T13:54:20.786Z,0.88
2023-12-04T13:57:28.919Z,0.86
2023-12-04T14:00:31.492Z,0.82
2023-12-04T14:03:35.109Z,0.77
2023-12-04T14:06:37.800Z,0.79
2023-12-04T14:09:41.101Z,0.68
2023-12-04T14:12:43.334Z,0.64
2023-12-04T14:15:45.938Z,0.47
2023-12-04T14:18:48.387Z,0.49
2023-12-04T14:21:50.974Z,0.50
2023-12-04T14:24:53.388Z,0.38
2023-12-04T14:27:56.011Z,0.25
2023-12-04T14:30:58.218Z,0.12
2023-12-04T14:34:00.856Z,0.08
2023-12-04T14:37:03.283Z,-0.01
2023-12-04T14:40:06.906Z,0.02
2023-12-04T14:43:10.950Z,0.13
2023-12-04T14:46:14.079Z,0.13
2023-12-04T14:49:16.913Z,0.17
2023-12-04T14:52:20.113Z,0.11
2023-12-04T14:55:25.316Z,0.13
2023-12-04T14:58:43.104Z,0.11
2023-12-04T15:02:03.995Z,0.10
2023-12-04T15:05:10.238Z,0.05
2023-12-04T15:08:24.667Z,-0.05
2023-12-04T15:11:56.179Z,-0.06
2023-12-04T15:15:16.334Z,-0.11
2023-12-04T15:18:35.774Z,0.03
2023-12-04T15:21:38.518Z,-0.09
2023-12-04T15:24:41.074Z,0.01
2023-12-04T15:27:45.146Z,-0.15
2023-12-04T15:30:47.845Z,0.02
2023-12-04T15:33:50.157Z,0.17
2023-12-04T15:36:52.754Z,0.17
2023-12-04T15:39:54.985Z,0.11
2023-12-04T15:42:57.904Z,-0.01
2023-12-04T15:46:00.227Z,0.08
2023-12-04T15:49:02.887Z,0.07
2023-12-04T15:52:05.495Z,0.16
2023-12-04T15:55:12.293Z,0.10
2023-12-04T15:58:14.498Z,0.00
2023-12-04T16:01:16.985Z,-0.11
2023-12-04T16:04:19.599Z,-0.16
2023-12-04T16:07:21.829Z,-0.05
2023-12-04T16:10:24.377Z,-0.13
2023-12-04T16:13:26.791Z,-0.20
2023-12-04T16:16:29.313Z,-0.30
2023-12-04T16:19:34.539Z,-0.38
2023-12-04T16:22:40.393Z,-0.34
2023-12-04T16:25:42.652Z,-0.35
2023-12-04T16:28:45.398Z,-0.46
2023-12-04T16:31:48.118Z,-0.47
2023-12-04T16:34:50.592Z,-0.51
2023-12-04T16:37:52.943Z,-0.61
